createdAt,value
2018-02-01T00:00:44.110Z,0.00
2018-02-01T00:01:44.094Z,0.00
2018-02-01T00:02:44.082Z,0.00
2018-02-01T00:03:44.067Z,0.00
2018-02-01T00:04:44.053Z,0.00
2018-02-01T00:05:44.042Z,0.00
2018-02-01T00:06:44.030Z,0.00
2018-02-01T00:07:44.017Z,0.00
2018-02-01T00:08:44.003Z,0.00
2018-02-01T00:09:43.990Z,0.00
2018-02-01T00:10:43.972Z,0.00
2018-02-01T00:11:43.963Z,0.00
2018-02-01T00:12:43.947Z,0.00
2018-02-01T00:13:43.932Z,0.00
2018-02-01T00:14:43.916Z,0.00
2018-02-01T00:15:43.906Z,0.00
2018-02-01T00:16:43.897Z,0.00
2018-02-01T00:17:43.879Z,0.00
2018-02-01T00:18:43.866Z,0.00
2018-02-01T00:19:43.854Z,0.00
2018-02-01T00:20:43.842Z,0.00
2018-02-01T00:21:43.837Z,0.00
2018-02-01T00:22:43.813Z,0.00
2018-02-01T00:23:43.802Z,0.00
2018-02-01T00:24:43.782Z,0.00
2018-02-01T00:25:43.771Z,0.00
2018-02-01T00:26:43.771Z,0.00
2018-02-01T00:27:43.748Z,0.00
2018-02-01T00:28:43.734Z,0.00
2018-02-01T00:29:43.718Z,0.00
2018-02-01T00:30:43.707Z,0.00
2018-02-01T00:31:43.695Z,0.00
2018-02-01T00:32:43.680Z,0.00
2018-02-01T00:33:43.664Z,0.00
2018-02-01T00:34:43.648Z,0.00
2018-02-01T00:35:43.641Z,0.00
2018-02-01T00:36:43.628Z,0.00
2018-02-01T00:37:43.610Z,0.00
2018-02-01T00:38:43.614Z,0.00
2018-02-01T00:39:43.585Z,0.00
2018-02-01T00:40:43.574Z,0.00
2018-02-01T00:41:43.562Z,0.00
2018-02-01T00:42:43.545Z,0.00
2018-02-01T00:43:43.535Z,0.00
2018-02-01T00:44:43.519Z,0.00
2018-02-01T00:45:43.502Z,0.00
2018-02-01T00:46:43.493Z,0.00
2018-02-01T00:47:43.477Z,0.00
2018-02-01T00:48:43.459Z,0.00
2018-02-01T00:49:43.446Z,0.00
2018-02-01T00:50:43.436Z,0.00
2018-02-01T00:51:43.425Z,0.00
2018-02-01T00:52:43.413Z,0.00
2018-02-01T00:53:43.395Z,0.00
2018-02-01T00:54:43.378Z,0.00
2018-02-01T00:55:43.372Z,0.00
2018-02-01T00:56:43.354Z,0.00
2018-02-01T00:57:43.341Z,0.00
2018-02-01T00:58:43.330Z,0.00
2018-02-01T00:59:43.314Z,0.00
2018-02-01T01:00:43.301Z,0.00
2018-02-01T01:01:43.291Z,0.00
2018-02-01T01:02:43.270Z,0.00
2018-02-01T01:03:43.256Z,0.00
2018-02-01T01:04:43.242Z,0.00
2018-02-01T01:05:43.231Z,0.00
2018-02-01T01:06:43.217Z,0.00
2018-02-01T01:07:43.214Z,0.00
2018-02-01T01:08:43.188Z,0.00
2018-02-01T01:09:43.174Z,0.00
2018-02-01T01:10:43.163Z,0.00
2018-02-01T01:11:43.149Z,0.00
2018-02-01T01:12:43.138Z,0.00
2018-02-01T01:13:43.120Z,0.00
2018-02-01T01:14:43.109Z,0.00
2018-02-01T01:15:43.098Z,0.00
2018-02-01T01:16:43.082Z,0.00
2018-02-01T01:17:43.068Z,0.00
2018-02-01T01:18:43.053Z,0.00
2018-02-01T01:19:43.039Z,0.00
2018-02-01T01:20:43.029Z,0.00
2018-02-01T01:22:43.006Z,0.00
2018-02-01T01:23:43.000Z,0.00
2018-02-01T01:24:42.984Z,0.00
2018-02-01T01:25:42.966Z,0.00
2018-02-01T01:26:42.953Z,0.00
2018-02-01T01:27:42.940Z,0.00
2018-02-01T01:29:03.927Z,0.00
2018-02-01T01:29:42.922Z,0.00
2018-02-01T01:30:42.903Z,0.00
2018-02-01T01:31:42.892Z,0.00
2018-02-01T01:32:42.874Z,0.00
2018-02-01T01:33:42.857Z,0.00
2018-02-01T01:35:03.850Z,0.00
2018-02-01T01:35:42.830Z,0.00
2018-02-01T01:36:42.822Z,0.00
2018-02-01T01:37:42.805Z,0.00
2018-02-01T01:38:42.795Z,0.00
2018-02-01T01:39:42.778Z,0.00
2018-02-01T01:41:03.772Z,0.00
2018-02-01T01:41:42.753Z,0.00
2018-02-01T01:42:42.735Z,0.00
2018-02-01T01:43:42.723Z,0.00
2018-02-01T01:44:42.710Z,0.00
2018-02-01T01:45:42.695Z,0.00
2018-02-01T01:47:03.681Z,0.00
2018-02-01T01:47:42.667Z,0.00
2018-02-01T01:48:42.651Z,0.00
2018-02-01T01:49:42.636Z,0.00
2018-02-01T01:50:42.627Z,0.00
2018-02-01T01:51:42.617Z,0.00
2018-02-01T01:53:03.598Z,0.00
2018-02-01T01:53:42.579Z,0.00
2018-02-01T01:54:42.569Z,0.00
2018-02-01T01:55:42.555Z,0.00
2018-02-01T01:56:42.539Z,0.00
2018-02-01T01:57:42.532Z,0.00
2018-02-01T01:59:03.524Z,0.00
2018-02-01T01:59:42.514Z,0.00
2018-02-01T02:00:42.489Z,0.00
2018-02-01T02:01:42.477Z,0.00
2018-02-01T02:02:42.464Z,0.00
2018-02-01T02:03:42.446Z,0.00
2018-02-01T02:05:03.438Z,0.00
2018-02-01T02:05:42.426Z,0.00
2018-02-01T02:06:42.404Z,0.00
2018-02-01T02:07:42.388Z,0.00
2018-02-01T02:08:42.381Z,0.00
2018-02-01T02:09:42.361Z,0.00
2018-02-01T02:11:03.354Z,0.00
2018-02-01T02:11:42.332Z,0.00
2018-02-01T02:12:42.327Z,0.00
2018-02-01T02:13:42.310Z,0.00
2018-02-01T02:14:42.293Z,0.00
2018-02-01T02:15:42.280Z,0.00
2018-02-01T02:17:03.271Z,0.00
2018-02-01T02:17:42.252Z,0.00
2018-02-01T02:18:42.241Z,0.00
2018-02-01T02:19:42.224Z,0.00
2018-02-01T02:20:42.230Z,0.00
2018-02-01T02:21:42.201Z,0.00
2018-02-01T02:23:03.192Z,0.00
2018-02-01T02:23:42.171Z,0.00
2018-02-01T02:24:42.158Z,0.00
2018-02-01T02:25:42.148Z,0.00
2018-02-01T02:26:42.129Z,0.00
2018-02-01T02:27:42.115Z,0.00
2018-02-01T02:29:03.104Z,0.00
2018-02-01T02:29:42.086Z,0.00
2018-02-01T02:30:42.073Z,0.00
2018-02-01T02:31:42.062Z,0.00
2018-02-01T02:32:42.054Z,0.00
2018-02-01T02:33:42.042Z,0.00
2018-02-01T02:35:03.025Z,0.00
2018-02-01T02:35:42.006Z,0.00
2018-02-01T02:36:41.992Z,0.00
2018-02-01T02:37:41.982Z,0.00
2018-02-01T02:38:41.965Z,0.00
2018-02-01T02:39:41.952Z,0.00
2018-02-01T02:41:02.940Z,0.00
2018-02-01T02:41:41.921Z,0.00
2018-02-01T02:42:41.916Z,0.00
2018-02-01T02:43:41.896Z,0.00
2018-02-01T02:44:41.881Z,0.00
2018-02-01T02:45:41.871Z,0.00
2018-02-01T02:47:02.858Z,0.00
2018-02-01T02:47:41.848Z,0.00
2018-02-01T02:48:41.829Z,0.00
2018-02-01T02:49:41.813Z,0.00
2018-02-01T02:50:41.800Z,0.00
2018-02-01T02:51:41.792Z,0.00
2018-02-01T02:53:02.783Z,0.00
2018-02-01T02:53:41.764Z,0.00
2018-02-01T02:54:41.746Z,0.00
2018-02-01T02:55:41.734Z,0.00
2018-02-01T02:56:41.720Z,0.00
2018-02-01T02:57:41.701Z,0.00
2018-02-01T02:59:02.702Z,0.00
2018-02-01T02:59:41.678Z,0.00
2018-02-01T03:00:41.671Z,0.00
2018-02-01T03:01:41.653Z,0.00
2018-02-01T03:02:41.643Z,0.00
2018-02-01T03:03:41.621Z,0.00
2018-02-01T03:05:02.610Z,0.00
2018-02-01T03:05:41.598Z,0.00
2018-02-01T03:06:41.580Z,0.00
2018-02-01T03:07:41.567Z,0.00
2018-02-01T03:08:41.556Z,0.00
2018-02-01T03:09:41.542Z,0.00
2018-02-01T03:11:02.528Z,0.00
2018-02-01T03:11:41.515Z,0.00
2018-02-01T03:12:41.505Z,0.00
2018-02-01T03:13:41.490Z,0.00
2018-02-01T03:14:41.474Z,0.00
2018-02-01T03:15:41.459Z,0.00
2018-02-01T03:17:02.452Z,0.00
2018-02-01T03:17:41.433Z,0.00
2018-02-01T03:18:41.444Z,0.00
2018-02-01T03:19:41.406Z,0.00
2018-02-01T03:20:41.399Z,0.00
2018-02-01T03:21:41.380Z,0.00
2018-02-01T03:23:02.370Z,0.00
2018-02-01T03:23:41.353Z,0.00
2018-02-01T03:24:41.335Z,0.00
2018-02-01T03:25:41.321Z,0.00
2018-02-01T03:26:41.308Z,0.00
2018-02-01T03:27:41.299Z,0.00
2018-02-01T03:29:02.304Z,0.00
2018-02-01T03:29:41.265Z,0.00
2018-02-01T03:30:41.252Z,0.00
2018-02-01T03:31:41.240Z,0.00
2018-02-01T03:32:41.228Z,0.00
2018-02-01T03:33:41.215Z,0.00
2018-02-01T03:35:02.202Z,0.00
2018-02-01T03:35:41.186Z,0.00
2018-02-01T03:36:41.175Z,0.00
2018-02-01T03:37:41.156Z,0.00
2018-02-01T03:38:41.141Z,0.00
2018-02-01T03:39:41.132Z,0.00
2018-02-01T03:41:02.122Z,0.00
2018-02-01T03:41:41.113Z,0.00
2018-02-01T03:42:41.097Z,0.00
2018-02-01T03:43:41.081Z,0.00
2018-02-01T03:44:41.062Z,0.00
2018-02-01T03:45:41.048Z,0.00
2018-02-01T03:47:02.036Z,0.00
2018-02-01T03:47:41.021Z,0.00
2018-02-01T03:48:41.007Z,0.00
2018-02-01T03:49:40.994Z,0.00
2018-02-01T03:50:40.979Z,0.00
2018-02-01T03:51:40.966Z,0.00
2018-02-01T03:53:01.953Z,0.00
2018-02-01T03:53:40.936Z,0.00
2018-02-01T03:54:40.922Z,0.00
2018-02-01T03:55:40.907Z,0.00
2018-02-01T03:56:40.895Z,0.00
2018-02-01T03:57:40.880Z,0.00
2018-02-01T03:59:01.869Z,0.00
2018-02-01T03:59:40.853Z,0.00
2018-02-01T04:00:40.839Z,0.00
2018-02-01T04:01:40.822Z,0.00
2018-02-01T04:02:40.810Z,0.00
2018-02-01T04:03:40.798Z,0.00
2018-02-01T04:05:01.783Z,0.00
2018-02-01T04:05:40.765Z,0.00
2018-02-01T04:06:40.758Z,0.00
2018-02-01T04:07:40.741Z,0.00
2018-02-01T04:08:40.724Z,0.00
2018-02-01T04:09:40.709Z,0.00
2018-02-01T04:11:01.699Z,0.00
2018-02-01T04:11:40.686Z,0.00
2018-02-01T04:12:40.674Z,0.00
2018-02-01T04:13:40.654Z,0.00
2018-02-01T04:14:40.645Z,0.00
2018-02-01T04:15:40.633Z,0.00
2018-02-01T04:17:01.620Z,0.00
2018-02-01T04:17:40.598Z,0.00
2018-02-01T04:18:40.585Z,0.00
2018-02-01T04:19:40.571Z,0.00
2018-02-01T04:20:40.559Z,0.00
2018-02-01T04:21:40.539Z,0.00
2018-02-01T04:23:01.533Z,0.00
2018-02-01T04:23:40.509Z,0.00
2018-02-01T04:24:40.496Z,0.00
2018-02-01T04:25:40.484Z,0.00
2018-02-01T04:26:40.471Z,0.00
2018-02-01T04:27:40.457Z,0.00
2018-02-01T04:29:01.446Z,0.00
2018-02-01T04:29:40.430Z,0.00
2018-02-01T04:30:40.413Z,0.00
2018-02-01T04:31:40.405Z,0.00
2018-02-01T04:32:40.385Z,0.00
2018-02-01T04:33:40.378Z,0.00
2018-02-01T04:35:01.358Z,0.00
2018-02-01T04:35:40.342Z,0.00
2018-02-01T04:36:40.335Z,0.00
2018-02-01T04:37:40.319Z,0.00
2018-02-01T04:38:40.300Z,0.00
2018-02-01T04:39:40.289Z,0.00
2018-02-01T04:41:01.291Z,0.00
2018-02-01T04:41:40.266Z,0.00
2018-02-01T04:42:40.248Z,0.00
2018-02-01T04:43:40.234Z,0.00
2018-02-01T04:44:40.221Z,0.00
2018-02-01T04:45:40.207Z,0.00
2018-02-01T04:47:01.200Z,0.00
2018-02-01T04:47:40.174Z,0.00
2018-02-01T04:48:40.163Z,0.00
2018-02-01T04:49:40.149Z,0.00
2018-02-01T04:50:40.137Z,0.00
2018-02-01T04:51:40.120Z,0.00
2018-02-01T04:53:01.112Z,0.00
2018-02-01T04:53:40.099Z,0.00
2018-02-01T04:54:40.086Z,0.00
2018-02-01T04:55:40.075Z,0.00
2018-02-01T04:56:40.056Z,0.00
2018-02-01T04:57:40.039Z,0.00
2018-02-01T04:59:01.027Z,0.00
2018-02-01T04:59:40.012Z,0.00
2018-02-01T05:00:39.994Z,0.00
2018-02-01T05:01:39.983Z,0.00
2018-02-01T05:02:39.970Z,0.00
2018-02-01T05:03:39.954Z,0.00
2018-02-01T05:05:00.944Z,0.00
2018-02-01T05:05:39.929Z,0.00
2018-02-01T05:06:39.913Z,0.00
2018-02-01T05:07:39.898Z,0.00
2018-02-01T05:08:39.884Z,0.00
2018-02-01T05:09:39.878Z,0.00
2018-02-01T05:11:00.858Z,0.00
2018-02-01T05:11:39.841Z,0.00
2018-02-01T05:12:39.832Z,0.00
2018-02-01T05:13:39.831Z,0.00
2018-02-01T05:14:39.803Z,0.00
2018-02-01T05:15:39.785Z,0.00
2018-02-01T05:17:00.776Z,0.00
2018-02-01T05:17:39.760Z,0.00
2018-02-01T05:18:39.744Z,0.00
2018-02-01T05:19:39.735Z,0.00
2018-02-01T05:20:39.723Z,0.00
2018-02-01T05:21:39.702Z,0.00
2018-02-01T05:23:00.692Z,0.00
2018-02-01T05:23:39.677Z,0.00
2018-02-01T05:24:39.663Z,0.00
2018-02-01T05:25:39.656Z,0.00
2018-02-01T05:26:39.632Z,0.00
2018-02-01T05:27:39.619Z,0.00
2018-02-01T05:29:00.615Z,0.00
2018-02-01T05:29:39.591Z,0.00
2018-02-01T05:30:39.590Z,0.00
2018-02-01T05:31:39.560Z,0.00
2018-02-01T05:32:39.546Z,0.00
2018-02-01T05:33:39.541Z,0.00
2018-02-01T05:35:00.524Z,0.00
2018-02-01T05:35:39.515Z,0.00
2018-02-01T05:36:39.491Z,0.00
2018-02-01T05:37:39.484Z,0.00
2018-02-01T05:38:39.463Z,0.00
2018-02-01T05:39:39.458Z,0.00
2018-02-01T05:41:00.442Z,0.00
2018-02-01T05:41:39.426Z,0.00
2018-02-01T05:42:39.407Z,0.00
2018-02-01T05:43:39.392Z,0.00
2018-02-01T05:44:39.378Z,0.00
2018-02-01T05:45:39.360Z,0.00
2018-02-01T05:47:00.355Z,0.00
2018-02-01T05:47:39.343Z,0.00
2018-02-01T05:48:39.320Z,0.00
2018-02-01T05:49:39.314Z,0.00
2018-02-01T05:50:39.293Z,0.00
2018-02-01T05:51:39.279Z,0.00
2018-02-01T05:53:00.268Z,0.00
2018-02-01T05:53:39.250Z,0.00
2018-02-01T05:54:39.234Z,0.00
2018-02-01T05:55:39.227Z,0.00
2018-02-01T05:56:39.209Z,0.00
2018-02-01T05:57:39.194Z,0.00
2018-02-01T05:59:00.178Z,0.00
2018-02-01T05:59:39.160Z,0.00
2018-02-01T06:00:39.149Z,0.00
2018-02-01T06:01:39.135Z,0.00
2018-02-01T06:02:39.126Z,0.00
2018-02-01T06:03:39.105Z,0.00
2018-02-01T06:05:00.104Z,0.00
2018-02-01T06:05:39.079Z,0.00
2018-02-01T06:06:39.066Z,0.00
2018-02-01T06:07:39.048Z,0.00
2018-02-01T06:08:39.035Z,0.00
2018-02-01T06:09:39.063Z,0.00
2018-02-01T06:11:00.027Z,0.00
2018-02-01T06:11:38.994Z,0.00
2018-02-01T06:12:38.991Z,0.00
2018-02-01T06:13:38.965Z,0.00
2018-02-01T06:14:38.945Z,0.00
2018-02-01T06:15:38.934Z,0.00
2018-02-01T06:16:59.924Z,0.00
2018-02-01T06:17:38.907Z,0.00
2018-02-01T06:18:38.901Z,0.00
2018-02-01T06:19:38.877Z,0.00
2018-02-01T06:20:38.864Z,0.00
2018-02-01T06:21:38.849Z,0.00
2018-02-01T06:22:59.837Z,0.00
2018-02-01T06:23:38.821Z,0.00
2018-02-01T06:24:38.806Z,0.00
2018-02-01T06:25:38.795Z,4.00
2018-02-01T06:26:38.773Z,4.00
2018-02-01T06:27:38.761Z,0.00
2018-02-01T06:28:59.760Z,0.00
2018-02-01T06:29:38.738Z,4.00
2018-02-01T06:30:38.725Z,4.00
2018-02-01T06:31:38.705Z,4.00
2018-02-01T06:32:38.689Z,4.00
2018-02-01T06:33:38.676Z,8.00
2018-02-01T06:34:59.666Z,4.00
2018-02-01T06:35:38.651Z,8.00
2018-02-01T06:36:38.633Z,12.00
2018-02-01T06:37:38.624Z,8.00
2018-02-01T06:38:38.606Z,12.00
2018-02-01T06:39:38.590Z,12.00
2018-02-01T06:40:59.581Z,12.00
2018-02-01T06:41:38.558Z,16.00
2018-02-01T06:42:38.548Z,16.00
2018-02-01T06:43:38.532Z,20.00
2018-02-01T06:44:38.517Z,20.00
2018-02-01T06:45:38.511Z,20.00
2018-02-01T06:46:59.494Z,24.00
2018-02-01T06:47:38.474Z,24.00
2018-02-01T06:48:38.461Z,24.00
2018-02-01T06:49:38.447Z,28.00
2018-02-01T06:50:38.438Z,28.00
2018-02-01T06:51:38.422Z,36.00
2018-02-01T06:52:59.405Z,36.00
2018-02-01T06:53:38.393Z,40.00
2018-02-01T06:54:38.378Z,40.00
2018-02-01T06:55:38.365Z,40.00
2018-02-01T06:56:38.352Z,44.00
2018-02-01T06:57:38.329Z,48.00
2018-02-01T06:58:59.317Z,52.00
2018-02-01T06:59:38.301Z,56.00
2018-02-01T07:00:38.292Z,64.00
2018-02-01T07:01:38.277Z,64.00
2018-02-01T07:02:38.261Z,72.00
2018-02-01T07:03:38.245Z,76.00
2018-02-01T07:04:59.238Z,84.00
2018-02-01T07:05:38.216Z,92.00
2018-02-01T07:06:38.208Z,104.00
2018-02-01T07:07:38.191Z,116.00
2018-02-01T07:08:38.173Z,120.00
2018-02-01T07:09:38.158Z,132.00
2018-02-01T07:10:59.158Z,140.00
2018-02-01T07:11:38.131Z,140.00
2018-02-01T07:12:38.117Z,148.00
2018-02-01T07:13:38.102Z,156.00
2018-02-01T07:14:38.088Z,156.00
2018-02-01T07:15:38.077Z,160.00
2018-02-01T07:16:59.064Z,164.00
2018-02-01T07:17:38.045Z,164.00
2018-02-01T07:18:38.030Z,172.00
2018-02-01T07:19:38.016Z,176.00
2018-02-01T07:20:38.009Z,184.00
2018-02-01T07:21:37.994Z,196.00
2018-02-01T07:22:58.978Z,212.00
2018-02-01T07:23:37.966Z,228.00
2018-02-01T07:24:37.948Z,236.00
2018-02-01T07:25:37.940Z,248.00
2018-02-01T07:26:37.918Z,260.00
2018-02-01T07:27:37.910Z,268.00
2018-02-01T07:28:58.893Z,272.00
2018-02-01T07:29:37.881Z,272.00
2018-02-01T07:30:37.861Z,276.00
2018-02-01T07:31:37.848Z,280.00
2018-02-01T07:32:37.832Z,284.00
2018-02-01T07:33:37.824Z,292.00
2018-02-01T07:34:58.808Z,296.00
2018-02-01T07:35:37.789Z,292.00
2018-02-01T07:36:37.776Z,288.00
2018-02-01T07:37:37.769Z,280.00
2018-02-01T07:38:37.753Z,272.00
2018-02-01T07:39:37.735Z,256.00
2018-02-01T07:40:58.726Z,248.00
2018-02-01T07:41:37.704Z,236.00
2018-02-01T07:42:37.695Z,228.00
2018-02-01T07:43:37.675Z,212.00
2018-02-01T07:44:37.663Z,188.00
2018-02-01T07:45:37.649Z,168.00
2018-02-01T07:46:58.641Z,156.00
2018-02-01T07:47:37.627Z,148.00
2018-02-01T07:48:37.609Z,144.00
2018-02-01T07:49:37.644Z,136.00
2018-02-01T07:50:37.580Z,128.00
2018-02-01T07:51:37.574Z,128.00
2018-02-01T07:52:58.563Z,128.00
2018-02-01T07:53:37.537Z,136.00
2018-02-01T07:54:37.528Z,148.00
2018-02-01T07:55:37.510Z,168.00
2018-02-01T07:56:37.495Z,184.00
2018-02-01T07:57:37.484Z,200.00
2018-02-01T07:58:58.473Z,208.00
2018-02-01T07:59:37.458Z,224.00
2018-02-01T08:00:37.444Z,248.00
2018-02-01T08:01:37.424Z,280.00
2018-02-01T08:02:37.411Z,308.00
2018-02-01T08:03:37.404Z,312.00
2018-02-01T08:04:58.388Z,300.00
2018-02-01T08:05:37.368Z,288.00
2018-02-01T08:06:37.358Z,284.00
2018-02-01T08:07:37.344Z,284.00
2018-02-01T08:08:37.367Z,276.00
2018-02-01T08:09:37.315Z,272.00
2018-02-01T08:10:58.303Z,276.00
2018-02-01T08:11:37.285Z,284.00
2018-02-01T08:12:37.272Z,288.00
2018-02-01T08:13:37.270Z,296.00
2018-02-01T08:14:37.249Z,304.00
2018-02-01T08:15:37.229Z,316.00
2018-02-01T08:16:58.228Z,336.00
2018-02-01T08:17:37.210Z,364.00
2018-02-01T08:18:37.197Z,392.00
2018-02-01T08:19:37.175Z,412.00
2018-02-01T08:20:37.201Z,416.00
2018-02-01T08:21:37.148Z,408.00
2018-02-01T08:22:58.145Z,396.00
2018-02-01T08:23:37.123Z,384.00
2018-02-01T08:24:37.106Z,384.00
2018-02-01T08:25:37.098Z,388.00
2018-02-01T08:26:37.083Z,404.00
2018-02-01T08:27:37.064Z,436.00
2018-02-01T08:28:58.071Z,464.00
2018-02-01T08:29:37.034Z,484.00
2018-02-01T08:30:37.024Z,504.00
2018-02-01T08:31:37.010Z,512.00
2018-02-01T08:32:36.995Z,516.00
2018-02-01T08:33:36.981Z,500.00
2018-02-01T08:34:57.970Z,484.00
2018-02-01T08:35:36.952Z,468.00
2018-02-01T08:36:36.940Z,460.00
2018-02-01T08:37:36.929Z,468.00
2018-02-01T08:38:36.917Z,468.00
2018-02-01T08:39:36.894Z,456.00
2018-02-01T08:40:57.892Z,448.00
2018-02-01T08:41:36.869Z,448.00
2018-02-01T08:42:36.853Z,456.00
2018-02-01T08:43:36.846Z,484.00
2018-02-01T08:44:36.828Z,512.00
2018-02-01T08:45:36.810Z,540.00
2018-02-01T08:46:57.803Z,560.00
2018-02-01T08:47:36.792Z,584.00
2018-02-01T08:48:36.772Z,608.00
2018-02-01T08:49:36.768Z,628.00
2018-02-01T08:50:36.746Z,652.00
2018-02-01T08:51:36.736Z,676.00
2018-02-01T08:52:57.717Z,700.00
2018-02-01T08:53:36.704Z,708.00
2018-02-01T08:54:36.685Z,704.00
2018-02-01T08:55:36.675Z,704.00
2018-02-01T08:56:36.667Z,704.00
2018-02-01T08:57:36.644Z,708.00
2018-02-01T08:58:57.637Z,712.00
2018-02-01T08:59:36.621Z,712.00
2018-02-01T09:00:36.603Z,700.00
2018-02-01T09:01:36.594Z,688.00
2018-02-01T09:02:36.576Z,692.00
2018-02-01T09:03:36.561Z,700.00
2018-02-01T09:04:57.555Z,708.00
2018-02-01T09:05:36.537Z,704.00
2018-02-01T09:06:36.521Z,704.00
2018-02-01T09:07:36.504Z,704.00
2018-02-01T09:08:36.490Z,708.00
2018-02-01T09:09:36.484Z,716.00
2018-02-01T09:10:57.466Z,744.00
2018-02-01T09:11:36.452Z,772.00
2018-02-01T09:12:36.436Z,796.00
2018-02-01T09:13:36.426Z,804.00
2018-02-01T09:14:36.405Z,800.00
2018-02-01T09:15:36.400Z,788.00
2018-02-01T09:16:57.386Z,772.00
2018-02-01T09:17:36.369Z,776.00
2018-02-01T09:18:36.353Z,788.00
2018-02-01T09:19:36.340Z,808.00
2018-02-01T09:20:36.326Z,820.00
2018-02-01T09:21:36.313Z,828.00
2018-02-01T09:22:57.303Z,820.00
2018-02-01T09:23:36.283Z,808.00
2018-02-01T09:24:36.270Z,788.00
2018-02-01T09:25:36.265Z,772.00
2018-02-01T09:26:36.245Z,756.00
2018-02-01T09:27:36.227Z,740.00
2018-02-01T09:28:57.218Z,724.00
2018-02-01T09:29:36.209Z,716.00
2018-02-01T09:30:36.189Z,708.00
2018-02-01T09:31:36.178Z,724.00
2018-02-01T09:32:36.159Z,740.00
2018-02-01T09:33:36.142Z,748.00
2018-02-01T09:34:57.136Z,740.00
2018-02-01T09:35:36.117Z,712.00
2018-02-01T09:36:36.107Z,672.00
2018-02-01T09:37:36.087Z,624.00
2018-02-01T09:38:36.077Z,584.00
2018-02-01T09:39:36.063Z,556.00
2018-02-01T09:40:57.049Z,540.00
2018-02-01T09:41:36.039Z,536.00
2018-02-01T09:42:36.022Z,540.00
2018-02-01T09:43:36.004Z,532.00
2018-02-01T09:44:35.993Z,520.00
2018-02-01T09:45:35.973Z,500.00
2018-02-01T09:46:56.969Z,500.00
2018-02-01T09:47:35.950Z,516.00
2018-02-01T09:48:35.934Z,536.00
2018-02-01T09:49:35.925Z,536.00
2018-02-01T09:50:35.911Z,508.00
2018-02-01T09:51:35.906Z,568.00
2018-02-01T09:52:56.884Z,632.00
2018-02-01T09:53:35.873Z,700.00
2018-02-01T09:54:35.849Z,752.00
2018-02-01T09:55:35.838Z,764.00
2018-02-01T09:56:35.823Z,760.00
2018-02-01T09:57:35.805Z,772.00
2018-02-01T09:58:56.811Z,772.00
2018-02-01T09:59:35.780Z,740.00
2018-02-01T10:00:35.770Z,876.00
2018-02-01T10:01:35.752Z,936.00
2018-02-01T10:02:35.738Z,880.00
2018-02-01T10:03:35.721Z,860.00
2018-02-01T10:04:56.712Z,816.00
2018-02-01T10:05:35.702Z,792.00
2018-02-01T10:06:35.680Z,740.00
2018-02-01T10:07:35.664Z,760.00
2018-02-01T10:08:35.650Z,748.00
2018-02-01T10:09:35.633Z,748.00
2018-02-01T10:10:56.627Z,736.00
2018-02-01T10:11:35.609Z,780.00
2018-02-01T10:12:35.638Z,724.00
2018-02-01T10:13:35.582Z,684.00
2018-02-01T10:14:35.561Z,752.00
2018-02-01T10:15:35.550Z,724.00
2018-02-01T10:16:56.536Z,720.00
2018-02-01T10:17:35.521Z,728.00
2018-02-01T10:18:35.508Z,708.00
2018-02-01T10:19:35.494Z,676.00
2018-02-01T10:20:35.479Z,652.00
2018-02-01T10:21:35.467Z,660.00
2018-02-01T10:22:56.453Z,664.00
2018-02-01T10:23:35.435Z,672.00
2018-02-01T10:24:35.424Z,680.00
2018-02-01T10:25:35.415Z,684.00
2018-02-01T10:26:35.392Z,696.00
2018-02-01T10:27:35.375Z,708.00
2018-02-01T10:28:56.365Z,788.00
2018-02-01T10:29:35.348Z,804.00
2018-02-01T10:30:35.333Z,804.00
2018-02-01T10:31:35.326Z,800.00
2018-02-01T10:32:35.306Z,796.00
2018-02-01T10:33:35.291Z,800.00
2018-02-01T10:34:56.282Z,800.00
2018-02-01T10:35:35.259Z,792.00
2018-02-01T10:36:35.248Z,836.00
2018-02-01T10:37:35.232Z,848.00
2018-02-01T10:38:35.214Z,888.00
2018-02-01T10:39:35.200Z,920.00
2018-02-01T10:40:56.189Z,956.00
2018-02-01T10:41:35.173Z,976.00
2018-02-01T10:42:35.161Z,984.00
2018-02-01T10:43:35.149Z,1004.00
2018-02-01T10:44:35.128Z,1032.00
2018-02-01T10:45:35.116Z,1004.00
2018-02-01T10:46:56.100Z,1036.00
2018-02-01T10:47:35.090Z,1064.00
2018-02-01T10:48:35.068Z,1072.00
2018-02-01T10:49:35.055Z,1056.00
2018-02-01T10:50:35.039Z,1048.00
2018-02-01T10:51:35.025Z,1032.00
2018-02-01T10:52:56.044Z,1000.00
2018-02-01T10:53:34.997Z,996.00
2018-02-01T10:54:34.988Z,1012.00
2018-02-01T10:55:34.973Z,1024.00
2018-02-01T10:56:34.957Z,1028.00
2018-02-01T10:57:34.942Z,980.00
2018-02-01T10:58:55.928Z,968.00
2018-02-01T10:59:34.911Z,968.00
2018-02-01T11:00:34.899Z,976.00
2018-02-01T11:01:34.885Z,948.00
2018-02-01T11:02:34.869Z,920.00
2018-02-01T11:03:34.855Z,884.00
2018-02-01T11:04:55.841Z,876.00
2018-02-01T11:05:34.824Z,852.00
2018-02-01T11:06:34.812Z,812.00
2018-02-01T11:07:34.799Z,780.00
2018-02-01T11:08:34.796Z,756.00
2018-02-01T11:09:34.766Z,748.00
2018-02-01T11:10:55.759Z,744.00
2018-02-01T11:11:34.743Z,736.00
2018-02-01T11:12:34.734Z,720.00
2018-02-01T11:13:34.710Z,704.00
2018-02-01T11:14:34.698Z,700.00
2018-02-01T11:15:34.682Z,696.00
2018-02-01T11:16:55.677Z,692.00
2018-02-01T11:17:34.657Z,684.00
2018-02-01T11:18:34.641Z,696.00
2018-02-01T11:19:34.631Z,704.00
2018-02-01T11:20:34.613Z,736.00
2018-02-01T11:21:34.598Z,740.00
2018-02-01T11:22:55.589Z,720.00
2018-02-01T11:23:34.567Z,716.00
2018-02-01T11:24:34.554Z,736.00
2018-02-01T11:25:34.539Z,724.00
2018-02-01T11:26:34.523Z,704.00
2018-02-01T11:27:34.531Z,700.00
2018-02-01T11:28:55.498Z,676.00
2018-02-01T11:29:34.477Z,640.00
2018-02-01T11:30:34.463Z,652.00
2018-02-01T11:31:34.449Z,636.00
2018-02-01T11:32:34.434Z,636.00
2018-02-01T11:33:34.421Z,628.00
2018-02-01T11:34:55.412Z,616.00
2018-02-01T11:35:34.396Z,612.00
2018-02-01T11:36:34.377Z,584.00
2018-02-01T11:37:34.363Z,576.00
2018-02-01T11:38:34.379Z,576.00
2018-02-01T11:39:34.334Z,568.00
2018-02-01T11:40:55.325Z,560.00
2018-02-01T11:41:34.312Z,572.00
2018-02-01T11:42:34.291Z,580.00
2018-02-01T11:43:34.274Z,576.00
2018-02-01T11:44:34.260Z,588.00
2018-02-01T11:45:34.249Z,572.00
2018-02-01T11:46:55.236Z,564.00
2018-02-01T11:47:34.218Z,544.00
2018-02-01T11:48:34.203Z,544.00
2018-02-01T11:49:34.186Z,540.00
2018-02-01T11:50:34.171Z,560.00
2018-02-01T11:51:34.157Z,580.00
2018-02-01T11:52:55.147Z,588.00
2018-02-01T11:53:34.128Z,584.00
2018-02-01T11:54:34.112Z,592.00
2018-02-01T11:55:34.104Z,600.00
2018-02-01T11:56:34.082Z,612.00
2018-02-01T11:57:34.074Z,612.00
2018-02-01T11:58:55.059Z,616.00
2018-02-01T11:59:34.041Z,648.00
2018-02-01T12:00:34.030Z,664.00
2018-02-01T12:01:34.012Z,672.00
2018-02-01T12:02:33.994Z,708.00
2018-02-01T12:03:33.987Z,716.00
2018-02-01T12:04:54.972Z,724.00
2018-02-01T12:05:33.951Z,712.00
2018-02-01T12:06:33.933Z,688.00
2018-02-01T12:07:33.924Z,668.00
2018-02-01T12:08:33.909Z,636.00
2018-02-01T12:09:33.893Z,620.00
2018-02-01T12:10:54.881Z,620.00
2018-02-01T12:11:33.866Z,624.00
2018-02-01T12:12:33.850Z,628.00
2018-02-01T12:13:33.840Z,624.00
2018-02-01T12:14:33.825Z,644.00
2018-02-01T12:15:33.805Z,636.00
2018-02-01T12:16:54.797Z,648.00
2018-02-01T12:17:33.775Z,648.00
2018-02-01T12:18:33.763Z,632.00
2018-02-01T12:19:33.745Z,600.00
2018-02-01T12:20:33.733Z,560.00
2018-02-01T12:21:33.724Z,520.00
2018-02-01T12:22:54.707Z,504.00
2018-02-01T12:23:33.694Z,516.00
2018-02-01T12:24:33.683Z,552.00
2018-02-01T12:25:33.661Z,592.00
2018-02-01T12:26:33.657Z,604.00
2018-02-01T12:27:33.632Z,616.00
2018-02-01T12:28:54.623Z,620.00
2018-02-01T12:29:33.602Z,624.00
2018-02-01T12:30:33.586Z,628.00
2018-02-01T12:31:33.572Z,652.00
2018-02-01T12:32:33.559Z,688.00
2018-02-01T12:33:33.543Z,700.00
2018-02-01T12:34:54.530Z,704.00
2018-02-01T12:35:33.513Z,692.00
2018-02-01T12:36:33.501Z,680.00
2018-02-01T12:37:33.492Z,688.00
2018-02-01T12:38:33.473Z,696.00
2018-02-01T12:39:33.459Z,692.00
2018-02-01T12:40:54.448Z,680.00
2018-02-01T12:41:33.436Z,672.00
2018-02-01T12:42:33.418Z,656.00
2018-02-01T12:43:33.405Z,636.00
2018-02-01T12:44:33.385Z,604.00
2018-02-01T12:45:33.377Z,588.00
2018-02-01T12:46:54.360Z,604.00
2018-02-01T12:47:33.340Z,632.00
2018-02-01T12:48:33.326Z,652.00
2018-02-01T12:49:33.311Z,648.00
2018-02-01T12:50:33.297Z,636.00
2018-02-01T12:51:33.285Z,620.00
2018-02-01T12:52:54.270Z,612.00
2018-02-01T12:53:33.256Z,608.00
2018-02-01T12:54:33.239Z,608.00